Terminal Aerodrome Forecast
Issued by NWS Wilmington, OH

Current Version | Previous Version | Graphics & Text | Print | Product List | Glossary On
Versions: 1 2 3 4 5 6 7 8 9 10 11 12 13 14 15 16 17 18 19 20 21 22 23 24 25
000
FTUS41 KILN 312000 AAA
TAFILN
TAF AMD
KILN 312055Z 3121/0118 30012KT P6SM OVC012
      TEMPO 3121/3123 5SM -DZ OVC009
     FM010000 33010KT P6SM OVC007
     FM011000 02007KT P6SM OVC007
     FM011300 03009KT P6SM VCSH OVC020=

USA.gov is the U.S. government's official web portal to all federal, state and local government web resources and services.